createdAt,value
2018-09-05T00:00:42.668Z,0.00
2018-09-05T00:01:42.663Z,0.00
2018-09-05T00:02:42.659Z,0.00
2018-09-05T00:03:42.684Z,0.00
2018-09-05T00:04:42.699Z,0.00
2018-09-05T00:05:44.329Z,0.00
2018-09-05T00:06:42.743Z,0.00
2018-09-05T00:07:42.703Z,0.00
2018-09-05T00:08:42.667Z,0.00
2018-09-05T00:09:42.693Z,0.00
2018-09-05T00:10:42.727Z,0.00
2018-09-05T00:11:42.802Z,0.00
2018-09-05T00:12:42.742Z,0.00
2018-09-05T00:13:42.694Z,0.00
2018-09-05T00:14:42.705Z,0.00
2018-09-05T00:15:44.315Z,0.00
2018-09-05T00:16:44.349Z,0.00
2018-09-05T00:17:42.689Z,0.00
2018-09-05T00:18:44.344Z,0.00
2018-09-05T00:19:44.372Z,0.00
2018-09-05T00:20:44.388Z,0.00
2018-09-05T00:21:42.678Z,0.00
2018-09-05T00:22:42.755Z,0.00
2018-09-05T00:23:42.781Z,0.00
2018-09-05T00:24:44.346Z,0.00
2018-09-05T00:25:44.344Z,0.00
2018-09-05T00:26:42.824Z,0.00
2018-09-05T00:27:44.398Z,0.00
2018-09-05T00:28:42.700Z,0.00
2018-09-05T00:29:42.695Z,0.00
2018-09-05T00:30:45.404Z,0.00
2018-09-05T00:31:42.829Z,0.00
2018-09-05T00:32:44.342Z,0.00
2018-09-05T00:33:42.769Z,0.00
2018-09-05T00:34:58.291Z,0.00
2018-09-05T00:35:42.722Z,0.00
2018-09-05T00:36:42.730Z,0.00
2018-09-05T00:37:44.429Z,0.00
2018-09-05T00:38:45.366Z,0.00
2018-09-05T00:39:45.383Z,0.00
2018-09-05T00:40:42.742Z,0.00
2018-09-05T00:41:42.767Z,0.00
2018-09-05T00:42:44.331Z,0.00
2018-09-05T00:43:42.723Z,0.00
2018-09-05T00:44:42.696Z,0.00
2018-09-05T00:45:44.396Z,0.00
2018-09-05T00:46:44.430Z,0.00
2018-09-05T00:47:44.412Z,0.00
2018-09-05T00:48:42.782Z,0.00
2018-09-05T00:49:44.389Z,0.00
2018-09-05T00:50:42.735Z,0.00
2018-09-05T00:51:44.395Z,0.00
2018-09-05T00:52:42.709Z,0.00
2018-09-05T00:53:42.769Z,0.00
2018-09-05T00:54:43.729Z,0.00
2018-09-05T00:55:42.720Z,0.00
2018-09-05T00:56:42.701Z,0.00
2018-09-05T00:57:42.737Z,0.00
2018-09-05T00:58:44.324Z,0.00
2018-09-05T00:59:42.694Z,0.00
2018-09-05T01:00:42.676Z,0.00
2018-09-05T01:01:44.311Z,0.00
2018-09-05T01:02:42.672Z,0.00
2018-09-05T01:03:42.672Z,0.00
2018-09-05T01:04:44.295Z,0.00
2018-09-05T01:05:42.696Z,0.00
2018-09-05T01:06:42.709Z,0.00
2018-09-05T01:07:42.671Z,0.00
2018-09-05T01:08:44.353Z,0.00
2018-09-05T01:09:42.672Z,0.00
2018-09-05T01:10:42.718Z,0.00
2018-09-05T01:11:44.305Z,0.00
2018-09-05T01:12:42.688Z,0.00
2018-09-05T01:13:42.675Z,0.00
2018-09-05T01:14:44.320Z,0.00
2018-09-05T01:15:42.698Z,0.00
2018-09-05T01:16:42.697Z,0.00
2018-09-05T01:17:44.308Z,0.00
2018-09-05T01:18:42.706Z,0.00
2018-09-05T01:19:42.668Z,0.00
2018-09-05T01:20:42.690Z,0.00
2018-09-05T01:21:42.674Z,0.00
2018-09-05T01:22:42.695Z,0.00
2018-09-05T01:23:42.666Z,0.00
2018-09-05T01:24:42.691Z,0.00
2018-09-05T01:25:42.687Z,0.00
2018-09-05T01:26:42.689Z,0.00
2018-09-05T01:27:44.343Z,0.00
2018-09-05T01:28:42.662Z,0.00
2018-09-05T01:29:42.698Z,0.00
2018-09-05T01:30:42.682Z,0.00
2018-09-05T01:31:42.681Z,0.00
2018-09-05T01:32:42.684Z,0.00
2018-09-05T01:33:42.740Z,0.00
2018-09-05T01:34:42.661Z,0.00
2018-09-05T01:35:42.661Z,0.00
2018-09-05T01:36:42.732Z,0.00
2018-09-05T01:37:42.683Z,0.00
2018-09-05T01:38:42.662Z,0.00
2018-09-05T01:39:44.408Z,0.00
2018-09-05T01:40:42.690Z,0.00
2018-09-05T01:41:42.727Z,0.00
2018-09-05T01:42:42.702Z,0.00
2018-09-05T01:43:42.681Z,0.00
2018-09-05T01:44:42.782Z,0.00
2018-09-05T01:45:42.691Z,0.00
2018-09-05T01:46:42.682Z,0.00
2018-09-05T01:47:45.333Z,0.00
2018-09-05T01:48:42.656Z,0.00
2018-09-05T01:49:42.752Z,0.00
2018-09-05T01:50:44.357Z,0.00
2018-09-05T01:51:42.764Z,0.00
2018-09-05T01:52:42.680Z,0.00
2018-09-05T01:53:42.767Z,0.00
2018-09-05T01:54:42.689Z,0.00
2018-09-05T01:55:42.677Z,0.00
2018-09-05T01:56:44.318Z,0.00
2018-09-05T01:57:42.664Z,0.00
2018-09-05T01:58:44.327Z,0.00
2018-09-05T01:59:42.710Z,0.00
2018-09-05T02:00:42.756Z,0.00
2018-09-05T02:01:42.696Z,0.00
2018-09-05T02:02:42.758Z,0.00
2018-09-05T02:03:45.308Z,0.00
2018-09-05T02:04:42.654Z,0.00
2018-09-05T02:05:42.681Z,0.00
2018-09-05T02:06:44.445Z,0.00
2018-09-05T02:07:44.382Z,0.00
2018-09-05T02:08:42.679Z,0.00
2018-09-05T02:09:45.306Z,0.00
2018-09-05T02:10:42.688Z,0.00
2018-09-05T02:11:42.681Z,0.00
2018-09-05T02:12:42.717Z,0.00
2018-09-05T02:13:42.739Z,0.00
2018-09-05T02:14:42.687Z,0.00
2018-09-05T02:15:42.739Z,0.00
2018-09-05T02:16:44.349Z,0.00
2018-09-05T02:17:44.349Z,0.00
2018-09-05T02:18:42.836Z,0.00
2018-09-05T02:19:42.732Z,0.00
2018-09-05T02:20:42.669Z,0.00
2018-09-05T02:21:42.674Z,0.00
2018-09-05T02:22:42.721Z,0.00
2018-09-05T02:23:42.706Z,0.00
2018-09-05T02:24:42.667Z,0.00
2018-09-05T02:25:44.409Z,0.00
2018-09-05T02:26:42.679Z,0.00
2018-09-05T02:27:44.385Z,0.00
2018-09-05T02:28:42.883Z,0.00
2018-09-05T02:29:44.346Z,0.00
2018-09-05T02:30:45.358Z,0.00
2018-09-05T02:31:43.686Z,0.00
2018-09-05T02:32:42.642Z,0.00
2018-09-05T02:33:42.721Z,0.00
2018-09-05T02:34:43.699Z,0.00
2018-09-05T02:35:44.491Z,0.00
2018-09-05T02:36:42.743Z,0.00
2018-09-05T02:37:42.741Z,0.00
2018-09-05T02:38:46.363Z,0.00
2018-09-05T02:39:42.687Z,0.00
2018-09-05T02:40:42.707Z,0.00
2018-09-05T02:41:44.353Z,0.00
2018-09-05T02:42:42.655Z,0.00
2018-09-05T02:43:42.735Z,0.00
2018-09-05T02:44:42.662Z,0.00
2018-09-05T02:45:42.654Z,0.00
2018-09-05T02:46:44.319Z,0.00
2018-09-05T02:47:42.666Z,0.00
2018-09-05T02:48:42.666Z,0.00
2018-09-05T02:49:44.437Z,0.00
2018-09-05T02:50:44.399Z,0.00
2018-09-05T02:51:42.770Z,0.00
2018-09-05T02:52:42.709Z,0.00
2018-09-05T02:53:52.344Z,0.00
2018-09-05T02:55:36.647Z,0.00
2018-09-05T02:56:36.510Z,0.00
2018-09-05T02:57:36.491Z,0.00
2018-09-05T02:58:37.109Z,0.00
2018-09-05T02:59:36.479Z,0.00
2018-09-05T03:00:36.475Z,0.00
2018-09-05T03:01:36.577Z,0.00
2018-09-05T03:02:36.584Z,0.00
2018-09-05T03:03:36.502Z,0.00
2018-09-05T03:04:36.512Z,0.00
2018-09-05T03:05:36.476Z,0.00
2018-09-05T03:06:36.527Z,0.00
2018-09-05T03:07:36.482Z,0.00
2018-09-05T03:08:36.498Z,0.00
2018-09-05T03:09:36.520Z,0.00
2018-09-05T03:10:36.494Z,0.00
2018-09-05T03:11:36.599Z,0.00
2018-09-05T03:12:36.469Z,0.00
2018-09-05T03:13:36.476Z,0.00
2018-09-05T03:14:36.483Z,0.00
2018-09-05T03:15:36.547Z,0.00
2018-09-05T03:16:36.486Z,0.00
2018-09-05T03:17:36.506Z,0.00
2018-09-05T03:18:36.474Z,0.00
2018-09-05T03:19:36.490Z,0.00
2018-09-05T03:20:36.471Z,0.00
2018-09-05T03:21:36.497Z,0.00
2018-09-05T03:22:36.519Z,0.00
2018-09-05T03:23:36.524Z,0.00
2018-09-05T03:24:36.511Z,0.00
2018-09-05T03:25:36.511Z,0.00
2018-09-05T03:26:36.470Z,0.00
2018-09-05T03:27:36.467Z,0.00
2018-09-05T03:28:36.527Z,0.00
2018-09-05T03:29:36.464Z,0.00
2018-09-05T03:30:36.505Z,0.00
2018-09-05T03:31:36.551Z,0.00
2018-09-05T03:32:37.232Z,0.00
2018-09-05T03:33:36.473Z,0.00
2018-09-05T03:34:36.477Z,0.00
2018-09-05T03:35:36.470Z,0.00
2018-09-05T03:36:36.498Z,0.00
2018-09-05T03:37:36.541Z,0.00
2018-09-05T03:38:37.252Z,0.00
2018-09-05T03:39:36.549Z,0.00
2018-09-05T03:40:36.483Z,0.00
2018-09-05T03:41:36.481Z,0.00
2018-09-05T03:42:36.493Z,0.00
2018-09-05T03:43:36.484Z,0.00
2018-09-05T03:44:37.136Z,0.00
2018-09-05T03:45:36.542Z,0.00
2018-09-05T03:46:36.516Z,0.00
2018-09-05T03:47:36.466Z,0.00
2018-09-05T03:48:36.491Z,0.00
2018-09-05T03:49:36.545Z,0.00
2018-09-05T03:50:36.462Z,0.00
2018-09-05T03:51:36.612Z,0.00
2018-09-05T03:52:36.471Z,0.00
2018-09-05T03:53:36.515Z,0.00
2018-09-05T03:54:36.452Z,0.00
2018-09-05T03:55:36.806Z,0.00
2018-09-05T03:56:36.465Z,0.00
2018-09-05T03:57:36.448Z,0.00
2018-09-05T03:58:36.494Z,0.00
2018-09-05T03:59:36.455Z,0.00
2018-09-05T04:00:36.541Z,0.00
2018-09-05T04:01:36.502Z,0.00
2018-09-05T04:02:36.509Z,0.00
2018-09-05T04:03:36.467Z,0.00
2018-09-05T04:04:36.447Z,0.00
2018-09-05T04:05:36.513Z,0.00
2018-09-05T04:06:36.526Z,0.00
2018-09-05T04:07:36.536Z,0.00
2018-09-05T04:08:39.112Z,0.00
2018-09-05T04:09:36.539Z,0.00
2018-09-05T04:10:36.481Z,0.00
2018-09-05T04:11:36.536Z,0.00
2018-09-05T04:12:36.633Z,4.00
2018-09-05T04:13:36.560Z,0.00
2018-09-05T04:14:36.542Z,0.00
2018-09-05T04:15:37.126Z,4.00
2018-09-05T04:16:36.467Z,0.00
2018-09-05T04:17:37.187Z,4.00
2018-09-05T04:18:36.530Z,4.00
2018-09-05T04:19:36.482Z,4.00
2018-09-05T04:20:36.471Z,4.00
2018-09-05T04:21:36.483Z,4.00
2018-09-05T04:22:36.434Z,8.00
2018-09-05T04:23:36.454Z,8.00
2018-09-05T04:24:36.427Z,12.00
2018-09-05T04:25:36.426Z,12.00
2018-09-05T04:26:36.451Z,16.00
2018-09-05T04:27:36.431Z,16.00
2018-09-05T04:28:36.430Z,16.00
2018-09-05T04:29:36.488Z,20.00
2018-09-05T04:30:36.436Z,20.00
2018-09-05T04:31:36.458Z,24.00
2018-09-05T04:32:36.425Z,28.00
2018-09-05T04:33:36.426Z,28.00
2018-09-05T04:34:36.424Z,36.00
2018-09-05T04:35:36.420Z,40.00
2018-09-05T04:36:36.420Z,40.00
2018-09-05T04:37:36.423Z,44.00
2018-09-05T04:38:36.455Z,52.00
2018-09-05T04:39:36.422Z,52.00
2018-09-05T04:40:36.420Z,60.00
2018-09-05T04:41:36.415Z,64.00
2018-09-05T04:42:36.418Z,68.00
2018-09-05T04:43:36.616Z,76.00
2018-09-05T04:44:36.420Z,84.00
2018-09-05T04:45:36.417Z,92.00
2018-09-05T04:46:36.591Z,96.00
2018-09-05T04:47:36.417Z,108.00
2018-09-05T04:48:36.415Z,116.00
2018-09-05T04:49:36.432Z,120.00
2018-09-05T04:50:36.423Z,132.00
2018-09-05T04:51:36.441Z,140.00
2018-09-05T04:52:36.414Z,148.00
2018-09-05T04:53:36.415Z,156.00
2018-09-05T04:54:36.453Z,164.00
2018-09-05T04:55:36.413Z,176.00
2018-09-05T04:56:36.407Z,188.00
2018-09-05T04:57:36.411Z,200.00
2018-09-05T04:58:36.408Z,208.00
2018-09-05T04:59:36.417Z,216.00
2018-09-05T05:00:36.501Z,224.00
2018-09-05T05:01:36.425Z,236.00
2018-09-05T05:02:36.430Z,248.00
2018-09-05T05:03:36.413Z,256.00
2018-09-05T05:04:36.482Z,268.00
2018-09-05T05:05:38.140Z,284.00
2018-09-05T05:06:37.068Z,292.00
2018-09-05T05:07:36.493Z,316.00
2018-09-05T05:10:15.743Z,368.00
2018-09-05T05:12:27.822Z,416.00
2018-09-05T05:13:21.782Z,440.00
2018-09-05T05:14:26.293Z,460.00
2018-09-05T05:15:21.744Z,488.00
2018-09-05T05:16:22.015Z,508.00
2018-09-05T05:17:22.339Z,528.00
2018-09-05T05:18:22.222Z,552.00
2018-09-05T05:19:28.467Z,576.00
2018-09-05T05:20:22.510Z,592.00
2018-09-05T05:21:21.867Z,608.00
2018-09-05T05:22:21.913Z,628.00
2018-09-05T05:23:24.506Z,644.00
2018-09-05T05:24:35.011Z,664.00
2018-09-05T05:26:16.673Z,704.00
2018-09-05T05:27:16.270Z,724.00
2018-09-05T05:29:12.693Z,772.00
2018-09-05T05:30:12.607Z,796.00
2018-09-05T05:32:06.060Z,844.00
2018-09-05T05:33:06.015Z,872.00
2018-09-05T05:34:06.003Z,896.00
2018-09-05T05:35:05.989Z,928.00
2018-09-05T05:38:04.845Z,1028.00
2018-09-05T05:39:04.811Z,1064.00
2018-09-05T05:40:20.031Z,1096.00
2018-09-05T05:41:07.592Z,1124.00
2018-09-05T05:42:05.445Z,1148.00
2018-09-05T05:43:04.815Z,1176.00
2018-09-05T05:44:04.819Z,1200.00
2018-09-05T05:46:26.471Z,1252.00
2018-09-05T05:47:26.261Z,1276.00
2018-09-05T05:48:26.326Z,1292.00
2018-09-05T05:49:26.233Z,1312.00
2018-09-05T05:50:26.221Z,1328.00
2018-09-05T05:51:26.254Z,1340.00
2018-09-05T05:52:47.304Z,1356.00
2018-09-05T05:53:26.952Z,1372.00
2018-09-05T05:54:26.228Z,1388.00
2018-09-05T05:55:26.223Z,1400.00
2018-09-05T05:56:26.434Z,1420.00
2018-09-05T05:57:26.327Z,1440.00
2018-09-05T05:58:27.016Z,1456.00
2018-09-05T05:59:27.258Z,1476.00
2018-09-05T06:00:26.385Z,1492.00
2018-09-05T06:04:05.718Z,1576.00
2018-09-05T06:04:52.196Z,1600.00
2018-09-05T06:05:50.303Z,1624.00
2018-09-05T06:06:50.286Z,1640.00
2018-09-05T06:08:15.991Z,1664.00
2018-09-05T06:12:22.783Z,1764.00
2018-09-05T06:15:43.084Z,1840.00
2018-09-05T06:18:32.273Z,1916.00
2018-09-05T06:19:32.243Z,1940.00
2018-09-05T06:20:32.282Z,1968.00
2018-09-05T06:21:58.092Z,1980.00
2018-09-05T06:24:51.923Z,2016.00
2018-09-05T06:25:51.904Z,2028.00
2018-09-05T06:34:20.334Z,3496.00
2018-09-05T06:41:39.048Z,4232.00
2018-09-05T06:42:39.037Z,4276.00
2018-09-05T06:44:33.696Z,4564.00
2018-09-05T06:45:33.646Z,4548.00
2018-09-05T06:46:34.454Z,4824.00
2018-09-05T07:01:21.550Z,5652.00
2018-09-05T08:49:20.614Z,18688.00
2018-09-05T08:50:20.586Z,18880.00
2018-09-05T08:51:20.573Z,18752.00
2018-09-05T08:52:20.559Z,19296.00
2018-09-05T08:53:20.531Z,19936.00
2018-09-05T08:54:20.474Z,20128.00
2018-09-05T08:55:20.537Z,21504.00
2018-09-05T08:56:20.583Z,21408.00
2018-09-05T08:57:20.515Z,21600.00
2018-09-05T08:58:20.523Z,20512.00
2018-09-05T08:59:20.535Z,19840.00
2018-09-05T09:00:28.734Z,19488.00
2018-09-05T09:02:14.925Z,17888.00
2018-09-05T09:03:14.668Z,17280.00
2018-09-05T09:05:08.761Z,16992.00
2018-09-05T09:06:08.649Z,16800.00
2018-09-05T09:08:02.230Z,16352.00
2018-09-05T09:09:02.266Z,16224.00
2018-09-05T09:10:02.091Z,16320.00
2018-09-05T09:11:02.081Z,16320.00
2018-09-05T09:12:11.845Z,16160.00
2018-09-05T09:13:55.948Z,16000.00
2018-09-05T09:16:36.086Z,15872.00
2018-09-05T09:17:36.003Z,16096.00
2018-09-05T09:19:36.725Z,16256.00
2018-09-05T09:20:29.520Z,16320.00
2018-09-05T09:59:45.761Z,7220.00
2018-09-05T10:00:42.496Z,7344.00
2018-09-05T10:02:36.448Z,7380.00
2018-09-05T10:03:36.467Z,7304.00
2018-09-05T10:05:29.250Z,7168.00
2018-09-05T10:06:29.256Z,7100.00
2018-09-05T10:08:22.651Z,6912.00
2018-09-05T10:09:22.611Z,6912.00
2018-09-05T10:11:16.017Z,6920.00
2018-09-05T10:12:16.044Z,6932.00
2018-09-05T10:14:08.952Z,7076.00
2018-09-05T10:15:08.925Z,7144.00
2018-09-05T10:17:02.399Z,7200.00
2018-09-05T10:18:02.329Z,7208.00
2018-09-05T10:19:02.854Z,7200.00
2018-09-05T10:22:20.749Z,7084.00
2018-09-05T10:23:11.772Z,7056.00
2018-09-05T10:26:36.017Z,6912.00
2018-09-05T10:27:34.473Z,6928.00
2018-09-05T10:28:41.739Z,6768.00
2018-09-05T10:30:35.454Z,6684.00
2018-09-05T10:31:35.196Z,6664.00
2018-09-05T10:32:35.115Z,6620.00
2018-09-05T10:33:36.942Z,6532.00
2018-09-05T10:34:35.253Z,6368.00
2018-09-05T10:35:35.292Z,6292.00
2018-09-05T10:36:35.276Z,6256.00
2018-09-05T10:39:12.079Z,6348.00
2018-09-05T10:40:12.015Z,6420.00
2018-09-05T10:41:22.639Z,6396.00
2018-09-05T10:43:05.443Z,6308.00
2018-09-05T10:44:05.493Z,6280.00
2018-09-05T10:48:47.450Z,5696.00
2018-09-05T10:51:27.909Z,5504.00
2018-09-05T10:53:58.837Z,5364.00
2018-09-05T10:54:56.422Z,5260.00
2018-09-05T11:01:21.166Z,5716.00
2018-09-05T11:01:53.104Z,5772.00
2018-09-05T11:04:41.181Z,5912.00
2018-09-05T11:05:40.184Z,5820.00
2018-09-05T11:06:40.086Z,5724.00
2018-09-05T11:07:40.121Z,5672.00
2018-09-05T11:08:48.822Z,5596.00
2018-09-05T11:10:34.722Z,5284.00
2018-09-05T11:11:34.632Z,5068.00
2018-09-05T11:12:34.594Z,4980.00
2018-09-05T11:13:34.602Z,4860.00
2018-09-05T11:14:34.651Z,4864.00
2018-09-05T11:15:34.766Z,4820.00
2018-09-05T11:16:34.634Z,4884.00
2018-09-05T11:19:16.637Z,5400.00
2018-09-05T11:20:16.623Z,5412.00
2018-09-05T11:21:16.740Z,5344.00
2018-09-05T11:22:16.675Z,5220.00
2018-09-05T11:23:16.766Z,5220.00
2018-09-05T11:24:18.880Z,5316.00
2018-09-05T11:25:23.789Z,5468.00
2018-09-05T11:27:10.680Z,5220.00
2018-09-05T11:28:11.076Z,5288.00
2018-09-05T11:29:10.778Z,5184.00
2018-09-05T11:30:11.109Z,5048.00
2018-09-05T11:31:10.631Z,4952.00
2018-09-05T11:32:10.629Z,4744.00
2018-09-05T11:37:37.477Z,4576.00
2018-09-05T11:38:35.855Z,4556.00
2018-09-05T11:39:35.691Z,4564.00
2018-09-05T11:40:35.726Z,4612.00
2018-09-05T11:41:35.697Z,4544.00
2018-09-05T11:42:35.693Z,4484.00
2018-09-05T11:43:35.731Z,4452.00
2018-09-05T11:44:35.785Z,4492.00
2018-09-05T11:45:35.801Z,4500.00
2018-09-05T11:46:38.759Z,4440.00
2018-09-05T11:49:37.837Z,4364.00
2018-09-05T11:50:58.814Z,4240.00
2018-09-05T11:51:37.353Z,4152.00
2018-09-05T11:52:37.238Z,4048.00
2018-09-05T11:53:37.248Z,3696.00
2018-09-05T11:54:37.257Z,4348.00
2018-09-05T11:55:37.286Z,4164.00
2018-09-05T11:56:37.270Z,4204.00
2018-09-05T11:57:37.295Z,3476.00
2018-09-05T11:58:37.284Z,4116.00
2018-09-05T11:59:37.367Z,4172.00
2018-09-05T12:00:37.308Z,4148.00
2018-09-05T12:01:37.321Z,4144.00
2018-09-05T12:02:37.328Z,4180.00
2018-09-05T12:03:37.349Z,4032.00
2018-09-05T12:04:37.345Z,4008.00
2018-09-05T12:05:37.350Z,3556.00
2018-09-05T12:06:37.349Z,3856.00
2018-09-05T12:07:37.478Z,3856.00
2018-09-05T12:08:37.364Z,3860.00
2018-09-05T12:09:37.406Z,3864.00
2018-09-05T12:10:37.411Z,3872.00
2018-09-05T12:11:37.451Z,3856.00
2018-09-05T12:12:37.395Z,3868.00
2018-09-05T12:13:37.438Z,3164.00
2018-09-05T12:14:37.452Z,3816.00
2018-09-05T12:15:37.416Z,3844.00
2018-09-05T12:16:37.450Z,3792.00
2018-09-05T12:17:37.440Z,3588.00
2018-09-05T12:18:37.513Z,2888.00
2018-09-05T12:19:37.451Z,2860.00
2018-09-05T12:20:37.461Z,3308.00
2018-09-05T12:21:37.472Z,2872.00
2018-09-05T12:22:37.478Z,2448.00
2018-09-05T12:23:37.488Z,2392.00
2018-09-05T12:24:37.491Z,2396.00
2018-09-05T12:25:37.508Z,2492.00
2018-09-05T12:26:37.550Z,3080.00
2018-09-05T12:27:37.535Z,3520.00
2018-09-05T12:28:37.516Z,3484.00
2018-09-05T12:29:37.546Z,3700.00
2018-09-05T12:30:37.576Z,3632.00
2018-09-05T12:31:37.591Z,3000.00
2018-09-05T12:32:37.587Z,3016.00
2018-09-05T12:33:37.580Z,3300.00
2018-09-05T12:34:37.563Z,3684.00
2018-09-05T12:35:37.590Z,3748.00
2018-09-05T12:36:37.689Z,3828.00
2018-09-05T12:37:37.587Z,3784.00
2018-09-05T12:38:37.634Z,3716.00
2018-09-05T12:39:37.654Z,3612.00
2018-09-05T12:40:37.668Z,3620.00
2018-09-05T12:41:37.618Z,3624.00
2018-09-05T12:42:42.442Z,3604.00
2018-09-05T12:43:37.678Z,3612.00
2018-09-05T12:44:37.766Z,3576.00
2018-09-05T12:45:38.316Z,3468.00
2018-09-05T12:46:37.688Z,3396.00
2018-09-05T12:47:37.664Z,3360.00
2018-09-05T12:48:37.689Z,3384.00
2018-09-05T12:49:37.762Z,3336.00
2018-09-05T12:50:38.293Z,3204.00
2018-09-05T12:51:37.727Z,3180.00
2018-09-05T12:52:37.708Z,3156.00
2018-09-05T12:53:38.389Z,3180.00
2018-09-05T12:54:44.954Z,3160.00
2018-09-05T12:56:31.195Z,3072.00
2018-09-05T12:57:31.244Z,3068.00
2018-09-05T12:58:31.203Z,3040.00
2018-09-05T13:01:12.802Z,2748.00
2018-09-05T13:02:12.541Z,2856.00
2018-09-05T13:03:12.577Z,2480.00
2018-09-05T13:04:12.666Z,2448.00
2018-09-05T13:05:12.707Z,2344.00
2018-09-05T13:06:12.569Z,2284.00
2018-09-05T13:07:12.579Z,2196.00
2018-09-05T13:08:12.577Z,2140.00
2018-09-05T13:09:12.634Z,2136.00
2018-09-05T13:10:12.606Z,2192.00
2018-09-05T13:11:12.659Z,2264.00
2018-09-05T13:12:12.610Z,2328.00
2018-09-05T13:13:14.565Z,2436.00
2018-09-05T13:14:12.622Z,2856.00
2018-09-05T13:15:12.630Z,2796.00
2018-09-05T13:16:12.638Z,2644.00
2018-09-05T13:17:12.643Z,2688.00
2018-09-05T13:18:12.651Z,2736.00
2018-09-05T13:19:12.657Z,2712.00
2018-09-05T13:20:14.571Z,2700.00
2018-09-05T13:21:12.669Z,2704.00
2018-09-05T13:22:12.679Z,2688.00
2018-09-05T13:23:12.688Z,2664.00
2018-09-05T13:24:12.730Z,2684.00
2018-09-05T13:25:12.720Z,2688.00
2018-09-05T13:26:12.733Z,2672.00
2018-09-05T13:27:12.713Z,2604.00
2018-09-05T13:28:12.721Z,2560.00
2018-09-05T13:29:12.726Z,2552.00
2018-09-05T13:30:12.734Z,2540.00
2018-09-05T13:31:12.742Z,2504.00
2018-09-05T13:32:12.772Z,2456.00
2018-09-05T13:33:12.770Z,2380.00
2018-09-05T13:34:15.583Z,2280.00
2018-09-05T13:35:12.767Z,2168.00
2018-09-05T13:36:12.802Z,2060.00
2018-09-05T13:37:12.789Z,1956.00
2018-09-05T13:38:12.793Z,1884.00
2018-09-05T13:39:12.811Z,1880.00
2018-09-05T13:40:12.802Z,1916.00
2018-09-05T13:41:12.812Z,1932.00
2018-09-05T13:42:12.818Z,1928.00
2018-09-05T13:43:12.818Z,2104.00
2018-09-05T13:44:12.828Z,1972.00
2018-09-05T13:45:12.871Z,1944.00
2018-09-05T13:46:12.840Z,1896.00
2018-09-05T13:47:14.686Z,1828.00
2018-09-05T13:48:12.925Z,1796.00
2018-09-05T13:49:13.600Z,1792.00
2018-09-05T13:50:12.868Z,1796.00
2018-09-05T13:51:12.882Z,1876.00
2018-09-05T13:52:12.880Z,1732.00
2018-09-05T13:53:12.885Z,1720.00
2018-09-05T13:54:12.948Z,1740.00
2018-09-05T13:55:12.894Z,1740.00
2018-09-05T13:56:12.933Z,1728.00
2018-09-05T13:57:15.580Z,1740.00
2018-09-05T13:58:12.938Z,1764.00
2018-09-05T13:59:12.934Z,1800.00
2018-09-05T14:00:12.953Z,1840.00
2018-09-05T14:01:12.944Z,1884.00
2018-09-05T14:02:12.969Z,1952.00
2018-09-05T14:03:12.971Z,2216.00
2018-09-05T14:04:13.163Z,2200.00
2018-09-05T14:05:12.983Z,2272.00
2018-09-05T14:06:13.003Z,2560.00
2018-09-05T14:07:12.970Z,2440.00
2018-09-05T14:08:13.011Z,2696.00
2018-09-05T14:09:12.990Z,2708.00
2018-09-05T14:10:12.992Z,2904.00
2018-09-05T14:11:13.000Z,2984.00
2018-09-05T14:12:15.593Z,2992.00
2018-09-05T14:13:13.061Z,2940.00
2018-09-05T14:15:10.901Z,2744.00
2018-09-05T14:16:10.918Z,2660.00
2018-09-05T14:17:10.852Z,2604.00
2018-09-05T14:18:10.867Z,2528.00
2018-09-05T14:19:10.973Z,2456.00
2018-09-05T14:20:11.014Z,2388.00
2018-09-05T14:21:10.904Z,2340.00
2018-09-05T14:22:10.989Z,2288.00
2018-09-05T14:23:10.922Z,2232.00
2018-09-05T14:24:10.881Z,2184.00
2018-09-05T14:25:10.864Z,2160.00
2018-09-05T14:26:10.891Z,2152.00
2018-09-05T14:27:10.906Z,2156.00
2018-09-05T14:34:36.245Z,2040.00
2018-09-05T14:35:29.209Z,2032.00
2018-09-05T14:37:29.246Z,2016.00
2018-09-05T14:38:22.667Z,1984.00
2018-09-05T14:39:29.245Z,1948.00
2018-09-05T14:46:04.908Z,1888.00
2018-09-05T14:46:43.426Z,1880.00
2018-09-05T14:47:43.388Z,1888.00
2018-09-05T14:48:43.401Z,1892.00
2018-09-05T14:53:48.232Z,1872.00
2018-09-05T14:54:41.091Z,1888.00
2018-09-05T14:56:34.582Z,1924.00
2018-09-05T14:57:34.464Z,1912.00
2018-09-05T14:59:27.665Z,1920.00
2018-09-05T15:00:27.568Z,1924.00
2018-09-05T15:03:50.283Z,1840.00
2018-09-05T15:04:49.750Z,1792.00
2018-09-05T15:05:49.788Z,1736.00
2018-09-05T15:06:50.633Z,1672.00
2018-09-05T15:07:49.807Z,1452.00
2018-09-05T15:08:49.812Z,1408.00
2018-09-05T15:09:49.792Z,1408.00
2018-09-05T15:10:49.818Z,1480.00
2018-09-05T15:11:49.829Z,1612.00
2018-09-05T15:12:49.813Z,1528.00
2018-09-05T15:13:49.812Z,1568.00
2018-09-05T15:14:49.959Z,1604.00
2018-09-05T15:16:01.136Z,1464.00
2018-09-05T15:16:50.011Z,1452.00
2018-09-05T15:26:39.788Z,1252.00
2018-09-05T15:27:16.973Z,1216.00
2018-09-05T15:30:33.209Z,1116.00
2018-09-05T15:38:42.133Z,1232.00
2018-09-05T15:39:28.103Z,1232.00
2018-09-05T15:40:37.859Z,1224.00
2018-09-05T15:55:21.806Z,1088.00
2018-09-05T16:02:24.457Z,1036.00
2018-09-05T16:02:33.700Z,1024.00
2018-09-05T16:03:33.664Z,1008.00
2018-09-05T16:04:33.599Z,992.00
2018-09-05T16:05:33.757Z,980.00
2018-09-05T16:06:33.615Z,968.00
2018-09-05T16:07:33.615Z,960.00
2018-09-05T16:08:33.657Z,948.00
2018-09-05T16:09:33.630Z,940.00
2018-09-05T16:10:33.641Z,936.00
2018-09-05T16:11:33.650Z,924.00
2018-09-05T16:12:33.660Z,912.00
2018-09-05T16:13:33.649Z,900.00
2018-09-05T16:14:33.690Z,892.00
2018-09-05T16:15:33.846Z,876.00
2018-09-05T16:16:33.667Z,868.00
2018-09-05T16:17:33.673Z,860.00
2018-09-05T16:18:33.679Z,848.00
2018-09-05T16:19:33.682Z,844.00
2018-09-05T16:20:33.687Z,836.00
2018-09-05T16:21:33.697Z,824.00
2018-09-05T16:22:33.700Z,816.00
2018-09-05T16:23:33.706Z,804.00
2018-09-05T16:24:33.721Z,800.00
2018-09-05T16:25:33.717Z,792.00
2018-09-05T16:26:33.722Z,784.00
2018-09-05T16:27:33.733Z,772.00
2018-09-05T16:28:33.738Z,764.00
2018-09-05T16:29:33.740Z,756.00
2018-09-05T16:30:33.742Z,748.00
2018-09-05T16:31:33.752Z,736.00
2018-09-05T16:32:33.754Z,728.00
2018-09-05T16:33:33.761Z,720.00
2018-09-05T16:34:33.765Z,708.00
2018-09-05T16:35:33.824Z,700.00
2018-09-05T16:36:33.774Z,692.00
2018-09-05T16:37:33.789Z,684.00
2018-09-05T16:38:33.785Z,672.00
2018-09-05T16:39:33.791Z,664.00
2018-09-05T16:40:33.796Z,652.00
2018-09-05T16:41:33.805Z,644.00
2018-09-05T16:42:33.826Z,632.00
2018-09-05T16:43:33.819Z,624.00
2018-09-05T16:44:33.823Z,616.00
2018-09-05T16:45:33.826Z,608.00
2018-09-05T16:46:33.839Z,600.00
2018-09-05T16:47:33.833Z,588.00
2018-09-05T16:48:33.902Z,576.00
2018-09-05T16:49:33.894Z,568.00
2018-09-05T16:50:33.852Z,560.00
2018-09-05T16:51:33.855Z,548.00
2018-09-05T16:52:33.880Z,540.00
2018-09-05T16:53:33.867Z,528.00
2018-09-05T16:54:33.870Z,520.00
2018-09-05T16:55:33.903Z,512.00
2018-09-05T16:56:33.879Z,504.00
2018-09-05T16:57:33.884Z,492.00
2018-09-05T16:58:33.890Z,484.00
2018-09-05T16:59:33.894Z,472.00
2018-09-05T17:00:33.900Z,464.00
2018-09-05T17:01:33.907Z,456.00
2018-09-05T17:02:33.912Z,444.00
2018-09-05T17:03:33.920Z,436.00
2018-09-05T17:04:33.921Z,428.00
2018-09-05T17:05:33.970Z,416.00
2018-09-05T17:06:33.932Z,408.00
2018-09-05T17:07:33.940Z,396.00
2018-09-05T17:08:33.942Z,388.00
2018-09-05T17:09:33.949Z,376.00
2018-09-05T17:10:33.963Z,368.00
2018-09-05T17:11:33.960Z,360.00
2018-09-05T17:12:33.961Z,348.00
2018-09-05T17:13:33.967Z,340.00
2018-09-05T17:14:33.992Z,332.00
2018-09-05T17:15:33.977Z,324.00
2018-09-05T17:16:33.980Z,316.00
2018-09-05T17:17:34.031Z,304.00
2018-09-05T17:18:33.991Z,296.00
2018-09-05T17:19:33.999Z,288.00
2018-09-05T17:20:34.000Z,280.00
2018-09-05T17:21:34.006Z,268.00
2018-09-05T17:22:34.064Z,256.00
2018-09-05T17:23:34.015Z,252.00
2018-09-05T17:24:34.034Z,240.00
2018-09-05T17:25:34.027Z,232.00
2018-09-05T17:26:34.041Z,224.00
2018-09-05T17:27:34.035Z,216.00
2018-09-05T17:28:41.202Z,204.00
2018-09-05T17:30:26.951Z,188.00
2018-09-05T17:31:26.926Z,180.00
2018-09-05T17:32:26.945Z,172.00
2018-09-05T17:33:26.984Z,164.00
2018-09-05T17:34:27.109Z,156.00
2018-09-05T17:35:26.948Z,152.00